Time;durP1;ratioP1;P1;durP2;ratioP2;P2;SDS_P1;SDS_P2;PMS_P1;PMS_P2;Temp;Humidity;BMP_temperature;BMP_pressure;BME280_temperature;BME280_humidity;BME280_pressure;Samples;Min_cycle;Max_cycle;Signal;HPM_P1;HPM_P2
2022/06/22 00:01:18;;;;;;;0.10;0.10;;;;;;;;;;5035657;28;20073;-89
2022/06/22 00:03:48;;;;;;;0.00;0.00;;;;;;;;;;5072431;28;20045;-91
2022/06/22 00:06:33;;;;;;;0.10;0.10;;;;;;;;;;5045726;28;20036;-88
2022/06/22 00:09:00;;;;;;;0.10;0.10;;;;;;;;;;5038210;28;20048;-88
2022/06/22 00:11:26;;;;;;;0.20;0.20;;;;;;;;;;5029381;28;20036;-89
2022/06/22 00:13:54;;;;;;;0.10;0.10;;;;;;;;;;5045079;28;20043;-89
2022/06/22 00:16:29;;;;;;;0.10;0.10;;;;;;;;;;5045718;28;20036;-89
2022/06/22 00:18:56;;;;;;;0.20;0.20;;;;;;;;;;5045975;28;20041;-88
2022/06/22 00:21:28;;;;;;;0.10;0.10;;;;;;;;;;5043964;28;20494;-88
2022/06/22 00:23:56;;;;;;;0.10;0.10;;;;;;;;;;5044984;28;20040;-89
2022/06/22 00:26:25;;;;;;;0.20;0.20;;;;;;;;;;5034913;28;20410;-89
2022/06/22 00:29:00;;;;;;;0.13;0.13;;;;;;;;;;5045996;28;20051;-90
2022/06/22 00:31:26;;;;;;;0.10;0.10;;;;;;;;;;5045104;28;20067;-91
2022/06/22 00:34:10;;;;;;;0.10;0.10;;;;;;;;;;5044250;28;20485;-88
2022/06/22 00:36:50;;;;;;;0.00;0.00;;;;;;;;;;5040460;28;20037;-88
2022/06/22 00:39:29;;;;;;;0.10;0.10;;;;;;;;;;5044526;28;20116;-89
2022/06/22 00:42:01;;;;;;;0.10;0.10;;;;;;;;;;5047411;28;20075;-89
2022/06/22 00:44:31;;;;;;;0.10;0.10;;;;;;;;;;5033771;28;20454;-89
2022/06/22 00:47:07;;;;;;;0.10;0.10;;;;;;;;;;5042187;28;20124;-89
2022/06/22 00:49:35;;;;;;;0.10;0.10;;;;;;;;;;5049228;28;20520;-89
2022/06/22 00:52:05;;;;;;;0.00;0.00;;;;;;;;;;5044165;28;20547;-88
2022/06/22 00:54:33;;;;;;;0.10;0.10;;;;;;;;;;5044407;28;20061;-89
2022/06/22 00:57:11;;;;;;;0.10;0.10;;;;;;;;;;5044599;28;20032;-89
2022/06/22 00:59:42;;;;;;;0.10;0.10;;;;;;;;;;5060650;28;20404;-89
2022/06/22 01:02:26;;;;;;;0.45;0.45;;;;;;;;;;5034862;28;20041;-89
2022/06/22 01:05:01;;;;;;;0.10;0.10;;;;;;;;;;5040544;28;20090;-89
2022/06/22 01:08:06;;;;;;;0.10;0.10;;;;;;;;;;5042771;28;20294;-88
2022/06/22 01:10:37;;;;;;;0.00;0.00;;;;;;;;;;4980626;28;20038;-88
2022/06/22 01:13:23;;;;;;;0.10;0.10;;;;;;;;;;4964535;28;20050;-89
2022/06/22 01:15:55;;;;;;;0.30;0.30;;;;;;;;;;5022392;28;20048;-89
2022/06/22 01:18:29;;;;;;;0.10;0.10;;;;;;;;;;5045674;28;20047;-89
2022/06/22 01:21:04;;;;;;;0.10;0.10;;;;;;;;;;5030906;28;20125;-89
2022/06/22 01:23:30;;;;;;;0.20;0.20;;;;;;;;;;5039663;28;20037;-89
2022/06/22 01:25:58;;;;;;;0.10;0.10;;;;;;;;;;5034754;28;20510;-89
2022/06/22 01:28:25;;;;;;;0.10;0.10;;;;;;;;;;5036542;28;20073;-88
2022/06/22 01:30:55;;;;;;;0.10;0.10;;;;;;;;;;5045115;28;20036;-89
2022/06/22 01:33:32;;;;;;;0.10;0.10;;;;;;;;;;5044080;28;20047;-89
2022/06/22 01:36:00;;;;;;;0.20;0.20;;;;;;;;;;5036535;28;20692;-89
2022/06/22 01:38:28;;;;;;;0.20;0.20;;;;;;;;;;5040128;28;20024;-89
2022/06/22 01:40:58;;;;;;;0.30;0.30;;;;;;;;;;5038447;28;20040;-89
2022/06/22 01:43:35;;;;;;;0.00;0.00;;;;;;;;;;5042031;28;20072;-88
2022/06/22 01:46:11;;;;;;;0.10;0.10;;;;;;;;;;5039683;28;20497;-88
2022/06/22 01:48:43;;;;;;;0.20;0.20;;;;;;;;;;5039551;28;20048;-89
2022/06/22 01:51:28;;;;;;;0.73;0.73;;;;;;;;;;5035772;28;20092;-88
2022/06/22 01:53:57;;;;;;;0.10;0.10;;;;;;;;;;5042229;28;20040;-89
2022/06/22 01:56:26;;;;;;;0.10;0.10;;;;;;;;;;5044701;28;20119;-89
2022/06/22 01:58:56;;;;;;;0.15;0.15;;;;;;;;;;5038642;28;20498;-89
2022/06/22 02:01:22;;;;;;;0.10;0.10;;;;;;;;;;5043164;28;20449;-89
2022/06/22 02:04:09;;;;;;;0.20;0.20;;;;;;;;;;5045924;28;20135;-88
2022/06/22 02:09:30;;;;;;;0.10;0.10;;;;;;;;;;5065560;28;20067;-88
2022/06/22 02:14:47;;;;;;;0.20;0.20;;;;;;;;;;5057490;28;20102;-88
2022/06/22 02:17:14;;;;;;;0.20;0.20;;;;;;;;;;5037515;28;20230;-87
2022/06/22 02:19:41;;;;;;;0.20;0.20;;;;;;;;;;5045173;28;20052;-87
2022/06/22 02:22:10;;;;;;;0.20;0.20;;;;;;;;;;5033449;28;20398;-88
2022/06/22 02:24:45;;;;;;;0.20;0.20;;;;;;;;;;5046199;28;20040;-88
2022/06/22 02:27:20;;;;;;;0.20;0.20;;;;;;;;;;5051401;28;20043;-88
2022/06/22 02:29:47;;;;;;;0.20;0.20;;;;;;;;;;5046744;28;20088;-89
2022/06/22 02:32:18;;;;;;;0.20;0.20;;;;;;;;;;5037859;28;20032;-88
2022/06/22 02:34:47;;;;;;;0.17;0.17;;;;;;;;;;5046306;28;20040;-88
2022/06/22 02:37:14;;;;;;;0.20;0.20;;;;;;;;;;5046358;28;20047;-88
2022/06/22 02:39:43;;;;;;;0.30;0.30;;;;;;;;;;5046682;28;20136;-89
2022/06/22 02:44:53;;;;;;;0.25;0.25;;;;;;;;;;5063170;28;20052;-88
2022/06/22 02:47:19;;;;;;;0.10;0.10;;;;;;;;;;5062541;28;20409;-88
2022/06/22 02:49:49;;;;;;;0.20;0.20;;;;;;;;;;5046144;28;20536;-88
2022/06/22 02:52:17;;;;;;;0.20;0.20;;;;;;;;;;5042501;28;20037;-89
2022/06/22 02:54:48;;;;;;;0.20;0.20;;;;;;;;;;5043856;28;20037;-88
2022/06/22 02:57:22;;;;;;;0.30;0.30;;;;;;;;;;5038902;28;20512;-88
2022/06/22 02:59:49;;;;;;;0.22;0.22;;;;;;;;;;5045753;28;20047;-88
2022/06/22 03:02:17;;;;;;;0.20;0.20;;;;;;;;;;5047749;28;20036;-89
2022/06/22 03:04:44;;;;;;;0.25;0.25;;;;;;;;;;5048135;28;20052;-90
2022/06/22 03:07:10;;;;;;;0.20;0.20;;;;;;;;;;5044429;28;20037;-89
2022/06/22 03:09:40;;;;;;;0.20;0.20;;;;;;;;;;5044975;28;20041;-88
2022/06/22 03:12:07;;;;;;;0.20;0.20;;;;;;;;;;5036370;28;20424;-87
2022/06/22 03:14:38;;;;;;;0.20;0.20;;;;;;;;;;5047709;28;20090;-86
2022/06/22 03:17:06;;;;;;;0.30;0.30;;;;;;;;;;5047164;28;20036;-87
2022/06/22 03:19:47;;;;;;;0.20;0.20;;;;;;;;;;5072455;28;20174;-87
2022/06/22 03:22:20;;;;;;;0.20;0.20;;;;;;;;;;5046390;28;20075;-88
2022/06/22 03:24:54;;;;;;;0.20;0.20;;;;;;;;;;5056896;28;20072;-88
2022/06/22 03:27:22;;;;;;;0.20;0.20;;;;;;;;;;5029794;28;20488;-88
2022/06/22 03:29:56;;;;;;;0.20;0.20;;;;;;;;;;5045935;28;20125;-88
2022/06/22 03:32:37;;;;;;;0.20;0.20;;;;;;;;;;5033780;28;20036;-87
2022/06/22 03:35:12;;;;;;;0.20;0.20;;;;;;;;;;5043902;28;20384;-88
2022/06/22 03:37:40;;;;;;;0.28;0.28;;;;;;;;;;5044136;28;20089;-88
2022/06/22 03:40:29;;;;;;;0.20;0.20;;;;;;;;;;5045030;28;20043;-89
2022/06/22 03:42:58;;;;;;;0.20;0.20;;;;;;;;;;5039749;28;20481;-88
2022/06/22 03:45:29;;;;;;;0.20;0.20;;;;;;;;;;5044407;28;20044;-88
2022/06/22 03:48:11;;;;;;;0.20;0.20;;;;;;;;;;5045183;28;20044;-89
2022/06/22 03:50:41;;;;;;;0.28;0.28;;;;;;;;;;5058601;28;20040;-88
2022/06/22 03:53:12;;;;;;;0.20;0.20;;;;;;;;;;5044277;28;20040;-88
2022/06/22 03:55:40;;;;;;;0.20;0.20;;;;;;;;;;5043836;28;20032;-87
2022/06/22 03:58:08;;;;;;;0.30;0.30;;;;;;;;;;5042164;28;20062;-88
2022/06/22 04:00:36;;;;;;;0.20;0.20;;;;;;;;;;5044708;28;20602;-87
2022/06/22 04:03:05;;;;;;;0.10;0.10;;;;;;;;;;5018216;28;20514;-88
2022/06/22 04:05:34;;;;;;;0.17;0.17;;;;;;;;;;5057215;28;20405;-88
2022/06/22 04:08:00;;;;;;;0.20;0.20;;;;;;;;;;5058962;28;20048;-88
2022/06/22 04:10:32;;;;;;;0.30;0.30;;;;;;;;;;5062336;28;20410;-88
2022/06/22 04:13:00;;;;;;;0.40;0.40;;;;;;;;;;5060962;28;20044;-87
2022/06/22 04:15:55;;;;;;;0.15;0.15;;;;;;;;;;5045228;28;20036;-87
2022/06/22 04:18:24;;;;;;;0.17;0.17;;;;;;;;;;5043640;28;20393;-88
2022/06/22 04:20:58;;;;;;;0.20;0.20;;;;;;;;;;5044649;28;20036;-88
2022/06/22 04:23:43;;;;;;;0.30;0.30;;;;;;;;;;5029227;28;20044;-88
2022/06/22 04:26:20;;;;;;;0.20;0.20;;;;;;;;;;5058836;28;20056;-87
2022/06/22 04:28:47;;;;;;;0.20;0.20;;;;;;;;;;5071189;28;20128;-87
2022/06/22 04:31:19;;;;;;;0.25;0.25;;;;;;;;;;5023503;28;20047;-87
2022/06/22 04:33:47;;;;;;;0.20;0.20;;;;;;;;;;5037131;28;20049;-88
2022/06/22 04:36:25;;;;;;;0.20;0.20;;;;;;;;;;5035593;28;20040;-87
2022/06/22 04:38:58;;;;;;;0.30;0.30;;;;;;;;;;5042146;28;20032;-87
2022/06/22 04:41:30;;;;;;;0.10;0.10;;;;;;;;;;5042898;28;20041;-88
2022/06/22 04:43:57;;;;;;;0.28;0.28;;;;;;;;;;5044219;28;20040;-87
2022/06/22 04:46:27;;;;;;;0.20;0.20;;;;;;;;;;5043975;28;20523;-87
2022/06/22 04:48:55;;;;;;;0.10;0.10;;;;;;;;;;5060757;28;20485;-87
2022/06/22 04:51:23;;;;;;;0.10;0.10;;;;;;;;;;5045135;28;20037;-87
2022/06/22 04:54:01;;;;;;;0.30;0.30;;;;;;;;;;5038713;28;20047;-90
2022/06/22 04:56:32;;;;;;;0.20;0.20;;;;;;;;;;5043318;28;20059;-87
2022/06/22 04:58:59;;;;;;;0.10;0.10;;;;;;;;;;5044180;28;20490;-87
2022/06/22 05:01:36;;;;;;;0.20;0.20;;;;;;;;;;5057606;28;20036;-86
2022/06/22 05:04:05;;;;;;;0.20;0.20;;;;;;;;;;5040935;28;20690;-87
2022/06/22 05:06:37;;;;;;;0.10;0.10;;;;;;;;;;5034979;28;20040;-87
2022/06/22 05:09:09;;;;;;;0.20;0.20;;;;;;;;;;5042674;28;20055;-86
2022/06/22 05:11:53;;;;;;;0.10;0.10;;;;;;;;;;5026651;28;20045;-87
2022/06/22 05:14:28;;;;;;;0.25;0.25;;;;;;;;;;5043243;28;20051;-87
2022/06/22 05:16:59;;;;;;;0.22;0.22;;;;;;;;;;5042269;28;20036;-89
2022/06/22 05:19:30;;;;;;;0.20;0.20;;;;;;;;;;5056107;28;20143;-88
2022/06/22 05:21:58;;;;;;;0.20;0.20;;;;;;;;;;5033189;28;20587;-89
2022/06/22 05:24:27;;;;;;;0.20;0.20;;;;;;;;;;5011838;28;20045;-88
2022/06/22 05:26:55;;;;;;;0.30;0.30;;;;;;;;;;5034940;28;20501;-88
2022/06/22 05:29:28;;;;;;;0.10;0.10;;;;;;;;;;5041654;28;20037;-88
2022/06/22 05:32:00;;;;;;;0.10;0.10;;;;;;;;;;5057179;28;20044;-88
2022/06/22 05:34:29;;;;;;;0.15;0.15;;;;;;;;;;5042697;28;20540;-87
2022/06/22 05:37:01;;;;;;;0.10;0.10;;;;;;;;;;5042285;28;20053;-86
2022/06/22 05:39:27;;;;;;;0.10;0.10;;;;;;;;;;5042303;28;20045;-88
2022/06/22 05:41:53;;;;;;;0.10;0.10;;;;;;;;;;5042782;28;20044;-88
2022/06/22 05:44:20;;;;;;;0.10;0.10;;;;;;;;;;5024603;28;20186;-86
2022/06/22 05:46:55;;;;;;;0.10;0.10;;;;;;;;;;5032394;28;20044;-89
2022/06/22 05:49:23;;;;;;;0.30;0.30;;;;;;;;;;5042149;28;20040;-89
2022/06/22 05:51:54;;;;;;;0.10;0.10;;;;;;;;;;5042041;28;20127;-89
2022/06/22 05:54:31;;;;;;;0.10;0.10;;;;;;;;;;5033041;28;20557;-88
2022/06/22 05:57:23;;;;;;;0.10;0.10;;;;;;;;;;5029328;28;20615;-88
2022/06/22 06:00:01;;;;;;;0.20;0.20;;;;;;;;;;5027780;28;20573;-90
2022/06/22 06:02:40;;;;;;;0.00;0.00;;;;;;;;;;5046145;28;20040;-89
2022/06/22 06:05:24;;;;;;;0.10;0.10;;;;;;;;;;5042011;28;20048;-88
2022/06/22 06:07:55;;;;;;;0.10;0.10;;;;;;;;;;5042206;28;20098;-89
2022/06/22 06:10:23;;;;;;;0.10;0.10;;;;;;;;;;5039683;28;20055;-90
2022/06/22 06:13:10;;;;;;;0.10;0.10;;;;;;;;;;5036163;28;20052;-90
2022/06/22 06:15:39;;;;;;;0.10;0.10;;;;;;;;;;5048238;28;20036;-89
2022/06/22 06:18:14;;;;;;;0.10;0.10;;;;;;;;;;5047841;28;20040;-92
2022/06/22 06:20:40;;;;;;;;;;;;;;;;;;5044366;28;20080;-87
2022/06/22 06:23:17;;;;;;;0.00;0.00;;;;;;;;;;5041650;28;19923;-90
2022/06/22 06:28:39;;;;;;;0.20;0.10;;;;;;;;;;5050562;28;20043;-89
2022/06/22 06:31:08;;;;;;;0.20;0.20;;;;;;;;;;5026956;28;20087;-90
2022/06/22 06:33:34;;;;;;;0.10;0.10;;;;;;;;;;5043360;28;20492;-90
2022/06/22 06:36:06;;;;;;;0.10;0.10;;;;;;;;;;5042716;28;20039;-90
2022/06/22 06:38:40;;;;;;;0.10;0.10;;;;;;;;;;5035280;28;20033;-90
2022/06/22 06:41:06;;;;;;;0.10;0.10;;;;;;;;;;5072647;28;20066;-89
2022/06/22 06:43:38;;;;;;;0.10;0.10;;;;;;;;;;5035093;28;20079;-89
2022/06/22 06:46:08;;;;;;;0.10;0.10;;;;;;;;;;5057601;28;20100;-89
2022/06/22 06:48:35;;;;;;;0.10;0.10;;;;;;;;;;5043451;28;20573;-94
2022/06/22 06:51:04;;;;;;;0.10;0.10;;;;;;;;;;5043024;28;20070;-92
2022/06/22 06:53:33;;;;;;;0.10;0.10;;;;;;;;;;5052682;28;20405;-90
2022/06/22 06:56:04;;;;;;;0.10;0.10;;;;;;;;;;5046136;28;20032;-91
2022/06/22 06:58:31;;;;;;;0.10;0.10;;;;;;;;;;5035861;28;20082;-89
2022/06/22 07:01:03;;;;;;;0.00;0.00;;;;;;;;;;5041654;28;20493;-88
2022/06/22 07:03:33;;;;;;;0.10;0.10;;;;;;;;;;5042427;28;20127;-89
2022/06/22 07:05:59;;;;;;;0.10;0.10;;;;;;;;;;5048053;28;20049;-92
2022/06/22 07:08:37;;;;;;;0.10;0.10;;;;;;;;;;5065460;28;20075;-91
2022/06/22 07:11:08;;;;;;;0.10;0.10;;;;;;;;;;5044289;28;20067;-90
2022/06/22 07:13:46;;;;;;;0.10;0.10;;;;;;;;;;5039877;28;20048;-90
2022/06/22 07:16:18;;;;;;;0.00;0.00;;;;;;;;;;5049186;28;20041;-94
2022/06/22 07:18:47;;;;;;;0.10;0.10;;;;;;;;;;5042126;28;20041;-93
2022/06/22 07:21:17;;;;;;;0.10;0.10;;;;;;;;;;5037556;28;20490;-90
2022/06/22 07:23:58;;;;;;;0.10;0.10;;;;;;;;;;5046391;28;20044;-90
2022/06/22 07:26:43;;;;;;;0.05;0.05;;;;;;;;;;5047766;28;20124;-90
2022/06/22 07:29:22;;;;;;;0.00;0.00;;;;;;;;;;5055541;28;20452;-91
2022/06/22 07:31:53;;;;;;;0.00;0.00;;;;;;;;;;5049490;28;20072;-93
2022/06/22 07:34:29;;;;;;;0.03;0.03;;;;;;;;;;5046782;28;20041;-90
2022/06/22 07:36:59;;;;;;;0.10;0.10;;;;;;;;;;5063773;28;20040;-91
2022/06/22 07:39:30;;;;;;;0.20;0.20;;;;;;;;;;5061320;28;20036;-92
2022/06/22 07:41:56;;;;;;;0.20;0.20;;;;;;;;;;5047280;28;20054;-93
2022/06/22 07:44:27;;;;;;;0.20;0.20;;;;;;;;;;5047446;28;20043;-92
2022/06/22 07:47:00;;;;;;;0.10;0.10;;;;;;;;;;5043223;28;20040;-89
2022/06/22 07:49:59;;;;;;;0.10;0.10;;;;;;;;;;5063427;28;20076;-90
2022/06/22 07:52:33;;;;;;;0.10;0.10;;;;;;;;;;5030316;28;20075;-90
2022/06/22 07:55:04;;;;;;;0.20;0.20;;;;;;;;;;5043530;28;20504;-92
2022/06/22 07:57:38;;;;;;;0.20;0.20;;;;;;;;;;5045162;28;20043;-92
2022/06/22 08:00:07;;;;;;;0.20;0.20;;;;;;;;;;5046773;28;20124;-90
2022/06/22 08:02:45;;;;;;;0.10;0.10;;;;;;;;;;5045102;28;20051;-92
2022/06/22 08:05:18;;;;;;;0.10;0.10;;;;;;;;;;5046442;28;20040;-91
2022/06/22 08:08:07;;;;;;;0.05;0.05;;;;;;;;;;5047320;28;20056;-91
2022/06/22 08:10:40;;;;;;;0.10;0.10;;;;;;;;;;5037548;28;20758;-90
2022/06/22 08:13:09;;;;;;;0.10;0.10;;;;;;;;;;5046584;28;20036;-89
2022/06/22 08:15:43;;;;;;;0.10;0.10;;;;;;;;;;5044213;28;20064;-86
2022/06/22 08:18:09;;;;;;;0.10;0.10;;;;;;;;;;5045377;28;20054;-93
2022/06/22 08:20:37;;;;;;;0.10;0.10;;;;;;;;;;5047383;28;20045;-96
2022/06/22 08:23:05;;;;;;;0.00;0.00;;;;;;;;;;5042566;28;20037;-93
2022/06/22 08:25:32;;;;;;;0.00;0.00;;;;;;;;;;5049784;28;20036;-91
2022/06/22 08:27:58;;;;;;;0.10;0.10;;;;;;;;;;5047227;28;20040;-92
2022/06/22 08:30:25;;;;;;;0.00;0.00;;;;;;;;;;5048994;28;20037;-94
2022/06/22 08:32:54;;;;;;;0.00;0.00;;;;;;;;;;5047276;28;20041;-94
2022/06/22 08:35:25;;;;;;;0.10;0.10;;;;;;;;;;5050275;28;20082;-89
2022/06/22 08:38:03;;;;;;;0.10;0.10;;;;;;;;;;5044059;28;20406;-89
2022/06/22 08:40:46;;;;;;;0.03;0.03;;;;;;;;;;5060781;28;20040;-91
2022/06/22 08:43:36;;;;;;;0.03;0.03;;;;;;;;;;5062559;28;20044;-91
2022/06/22 08:46:21;;;;;;;0.03;0.03;;;;;;;;;;5039428;28;20041;-92
2022/06/22 08:49:02;;;;;;;0.20;0.20;;;;;;;;;;5046170;28;20048;-91
2022/06/22 08:51:37;;;;;;;0.20;0.20;;;;;;;;;;5043237;28;20078;-89
2022/06/22 08:57:07;;;;;;;0.08;0.08;;;;;;;;;;5051224;28;20390;-87
2022/06/22 08:59:36;;;;;;;0.08;0.08;;;;;;;;;;5038548;28;20477;-87
2022/06/22 09:02:05;;;;;;;0.15;0.15;;;;;;;;;;5038496;28;20064;-87
2022/06/22 09:05:04;;;;;;;0.10;0.10;;;;;;;;;;5057512;28;20047;-86
2022/06/22 09:07:55;;;;;;;0.00;0.00;;;;;;;;;;5051062;28;20045;-85
2022/06/22 09:10:41;;;;;;;0.10;0.10;;;;;;;;;;5031675;28;20040;-85
2022/06/22 09:13:07;;;;;;;0.15;0.15;;;;;;;;;;5040642;28;20471;-86
2022/06/22 09:15:39;;;;;;;0.00;0.00;;;;;;;;;;5058638;28;20456;-87
2022/06/22 09:18:05;;;;;;;0.10;0.10;;;;;;;;;;5059548;28;20556;-87
2022/06/22 09:20:43;;;;;;;0.05;0.05;;;;;;;;;;5040135;28;20037;-88
2022/06/22 09:23:42;;;;;;;0.20;0.20;;;;;;;;;;5038648;28;20048;-89
2022/06/22 09:26:41;;;;;;;0.05;0.05;;;;;;;;;;5009461;28;20051;-92
2022/06/22 09:29:12;;;;;;;0.05;0.05;;;;;;;;;;5001976;28;20074;-89
2022/06/22 09:32:04;;;;;;;0.00;0.00;;;;;;;;;;5036074;28;20064;-90
2022/06/22 09:34:42;;;;;;;0.10;0.10;;;;;;;;;;5037115;28;20025;-89
2022/06/22 09:37:26;;;;;;;0.03;0.03;;;;;;;;;;5043018;28;20070;-90
2022/06/22 09:40:02;;;;;;;0.10;0.10;;;;;;;;;;5034987;28;20490;-90
2022/06/22 09:42:47;;;;;;;0.10;0.10;;;;;;;;;;5042439;28;20072;-90
2022/06/22 09:45:25;;;;;;;0.00;0.00;;;;;;;;;;5041590;28;20535;-93
2022/06/22 09:48:10;;;;;;;0.00;0.00;;;;;;;;;;5039073;28;20573;-90
2022/06/22 09:50:59;;;;;;;0.00;0.00;;;;;;;;;;5040342;28;20375;-90
2022/06/22 09:53:46;;;;;;;0.03;0.03;;;;;;;;;;5027003;28;20538;-90
2022/06/22 09:56:22;;;;;;;0.10;0.10;;;;;;;;;;5043631;28;20087;-89
2022/06/22 09:59:07;;;;;;;0.10;0.10;;;;;;;;;;5039129;28;20417;-90
2022/06/22 10:01:43;;;;;;;0.10;0.10;;;;;;;;;;5043428;28;20511;-91
2022/06/22 10:04:17;;;;;;;0.00;0.00;;;;;;;;;;5031659;28;20045;-91
2022/06/22 10:06:46;;;;;;;0.00;0.00;;;;;;;;;;5041454;28;20123;-91
2022/06/22 10:09:27;;;;;;;0.10;0.10;;;;;;;;;;5038515;28;20048;-90
2022/06/22 10:12:12;;;;;;;0.03;0.03;;;;;;;;;;5029832;28;20047;-90
2022/06/22 10:14:44;;;;;;;0.00;0.00;;;;;;;;;;5044330;28;20037;-90
2022/06/22 10:17:10;;;;;;;0.10;0.10;;;;;;;;;;5065624;28;20040;-89
2022/06/22 10:19:55;;;;;;;0.00;0.00;;;;;;;;;;5044839;28;20033;-90
2022/06/22 10:22:33;;;;;;;0.10;0.10;;;;;;;;;;5058440;28;20036;-90
2022/06/22 10:25:18;;;;;;;0.20;0.20;;;;;;;;;;5030061;28;20037;-90
2022/06/22 10:28:22;;;;;;;0.10;0.10;;;;;;;;;;5058258;28;20047;-92
2022/06/22 10:30:48;;;;;;;0.00;0.00;;;;;;;;;;4990526;28;20547;-91
2022/06/22 10:33:27;;;;;;;0.00;0.00;;;;;;;;;;5035614;28;20049;-91
2022/06/22 10:36:09;;;;;;;0.00;0.00;;;;;;;;;;5047642;28;20059;-89
2022/06/22 10:38:54;;;;;;;0.05;0.05;;;;;;;;;;5071367;28;20056;-90
2022/06/22 10:47:07;;;;;;;0.00;0.00;;;;;;;;;;5051721;28;20081;-89
2022/06/22 10:49:36;;;;;;;0.08;0.08;;;;;;;;;;5051533;28;20070;-95
2022/06/22 10:52:12;;;;;;;0.00;0.00;;;;;;;;;;5038257;28;20044;-93
2022/06/22 10:55:17;;;;;;;0.10;0.10;;;;;;;;;;5066782;28;20032;-90
2022/06/22 10:57:46;;;;;;;0.10;0.10;;;;;;;;;;4981853;28;20125;-94
2022/06/22 11:00:20;;;;;;;0.00;0.00;;;;;;;;;;5069671;28;20044;-93
2022/06/22 11:03:11;;;;;;;0.00;0.00;;;;;;;;;;5067805;28;20052;-94
2022/06/22 11:05:46;;;;;;;0.10;0.10;;;;;;;;;;5046044;28;20040;-92
2022/06/22 11:08:22;;;;;;;0.10;0.10;;;;;;;;;;5049698;28;20036;-92
2022/06/22 11:11:19;;;;;;;0.10;0.10;;;;;;;;;;5045594;28;20040;-92
2022/06/22 11:14:04;;;;;;;0.10;0.10;;;;;;;;;;5035151;28;20049;-92
2022/06/22 11:16:39;;;;;;;0.00;0.00;;;;;;;;;;5043335;28;20567;-91
2022/06/22 11:19:32;;;;;;;0.00;0.00;;;;;;;;;;5043365;28;20100;-89
2022/06/22 11:22:06;;;;;;;0.00;0.00;;;;;;;;;;5020462;28;20045;-89
2022/06/22 11:24:43;;;;;;;0.00;0.00;;;;;;;;;;5039754;28;20067;-91
2022/06/22 11:33:08;;;;;;;0.00;0.00;;;;;;;;;;5063260;28;20047;-90
2022/06/22 11:35:37;;;;;;;0.00;0.00;;;;;;;;;;5063411;28;20077;-90
2022/06/22 11:38:23;;;;;;;0.00;0.00;;;;;;;;;;5047825;28;20033;-91
2022/06/22 11:41:07;;;;;;;0.00;0.00;;;;;;;;;;5044037;28;20409;-92
2022/06/22 11:43:39;;;;;;;0.00;0.00;;;;;;;;;;5044022;28;20040;-92
2022/06/22 11:46:11;;;;;;;0.00;0.00;;;;;;;;;;5043937;28;20079;-90
2022/06/22 11:48:39;;;;;;;0.08;0.08;;;;;;;;;;5045023;28;20040;-90
2022/06/22 11:51:09;;;;;;;0.10;0.10;;;;;;;;;;5054714;28;20040;-90
2022/06/22 11:53:38;;;;;;;0.20;0.20;;;;;;;;;;5040108;28;20048;-89
2022/06/22 11:56:14;;;;;;;0.10;0.10;;;;;;;;;;5039472;28;20041;-93
2022/06/22 11:58:47;;;;;;;0.03;0.03;;;;;;;;;;5028801;28;20036;-92
2022/06/22 12:01:43;;;;;;;0.00;0.00;;;;;;;;;;5060834;28;20041;-93
2022/06/22 12:04:24;;;;;;;0.08;0.08;;;;;;;;;;5044678;28;20130;-92
2022/06/22 12:07:24;;;;;;;0.00;0.00;;;;;;;;;;5042543;28;20128;-92
2022/06/22 12:10:09;;;;;;;0.00;0.00;;;;;;;;;;5011603;28;20049;-92
2022/06/22 12:12:38;;;;;;;0.00;0.00;;;;;;;;;;5045699;28;20402;-90
2022/06/22 12:15:14;;;;;;;0.08;0.08;;;;;;;;;;5045967;28;20108;-92
2022/06/22 12:17:58;;;;;;;0.00;0.00;;;;;;;;;;5046841;28;20034;-90
2022/06/22 12:20:48;;;;;;;0.00;0.00;;;;;;;;;;5062459;28;20036;-91
2022/06/22 12:23:30;;;;;;;0.00;0.00;;;;;;;;;;5047590;28;20100;-94
2022/06/22 12:26:15;;;;;;;0.03;0.03;;;;;;;;;;5074829;28;20036;-88
2022/06/22 12:28:42;;;;;;;;;;;;;;;;;;5043999;28;20048;-90
2022/06/22 12:31:22;;;;;;;0.00;0.00;;;;;;;;;;5049584;28;19923;-91
2022/06/22 12:34:09;;;;;;;0.10;0.10;;;;;;;;;;5044350;28;20045;-91
2022/06/22 12:36:49;;;;;;;0.00;0.00;;;;;;;;;;5040511;28;20033;-94
2022/06/22 12:39:22;;;;;;;0.00;0.00;;;;;;;;;;5062262;28;20045;-89
2022/06/22 12:41:57;;;;;;;0.00;0.00;;;;;;;;;;5042326;28;20128;-88
2022/06/22 12:44:52;;;;;;;0.00;0.00;;;;;;;;;;5046215;28;20045;-94
2022/06/22 12:47:18;;;;;;;0.10;0.10;;;;;;;;;;5043616;28;20618;-95
2022/06/22 12:49:47;;;;;;;0.00;0.00;;;;;;;;;;5042083;28;20397;-93
2022/06/22 12:52:45;;;;;;;0.10;0.10;;;;;;;;;;5037753;28;20098;-96
2022/06/22 12:55:18;;;;;;;0.10;0.10;;;;;;;;;;5033876;28;20045;-91
2022/06/22 12:58:11;;;;;;;0.00;0.00;;;;;;;;;;5041358;28;20072;-91
2022/06/22 13:04:02;;;;;;;0.10;0.10;;;;;;;;;;5071264;28;20124;-93
2022/06/22 13:06:29;;;;;;;0.10;0.10;;;;;;;;;;5043061;28;20033;-93
2022/06/22 13:08:57;;;;;;;0.00;0.00;;;;;;;;;;5045294;28;20567;-96
2022/06/22 13:11:27;;;;;;;0.00;0.00;;;;;;;;;;5034147;28;20040;-90
2022/06/22 13:14:00;;;;;;;0.03;0.03;;;;;;;;;;5019139;28;20040;-91
2022/06/22 13:16:29;;;;;;;0.10;0.10;;;;;;;;;;5045104;28;20047;-91
2022/06/22 13:19:15;;;;;;;0.00;0.00;;;;;;;;;;5045099;28;20036;-92
2022/06/22 13:22:05;;;;;;;0.00;0.00;;;;;;;;;;5077956;28;20042;-94
2022/06/22 13:24:40;;;;;;;0.00;0.00;;;;;;;;;;5043720;28;20036;-92
2022/06/22 13:27:13;;;;;;;0.10;0.10;;;;;;;;;;5042232;28;20405;-87
2022/06/22 13:29:58;;;;;;;0.00;0.00;;;;;;;;;;5027078;28;20067;-87
2022/06/22 13:32:29;;;;;;;0.00;0.00;;;;;;;;;;5033534;28;20047;-88
2022/06/22 13:35:04;;;;;;;0.10;0.10;;;;;;;;;;5031013;28;20047;-89
2022/06/22 13:38:01;;;;;;;0.00;0.00;;;;;;;;;;5041568;28;20045;-87
2022/06/22 13:40:33;;;;;;;0.00;0.00;;;;;;;;;;5042879;28;20033;-86
2022/06/22 13:43:15;;;;;;;0.00;0.00;;;;;;;;;;5059191;28;20044;-89
2022/06/22 13:45:41;;;;;;;0.00;0.00;;;;;;;;;;5038118;28;20128;-88
2022/06/22 13:48:21;;;;;;;0.00;0.00;;;;;;;;;;5038133;28;20547;-87
2022/06/22 13:51:13;;;;;;;0.00;0.00;;;;;;;;;;5044731;28;20089;-89
2022/06/22 13:53:58;;;;;;;0.10;0.10;;;;;;;;;;5049777;28;20044;-88
2022/06/22 13:56:43;;;;;;;0.10;0.10;;;;;;;;;;5037982;28;20043;-92
2022/06/22 13:59:09;;;;;;;;;;;;;;;;;;5039903;28;20124;-88
2022/06/22 14:01:42;;;;;;;0.10;0.10;;;;;;;;;;5043869;28;19916;-88
2022/06/22 14:04:21;;;;;;;0.00;0.00;;;;;;;;;;5041908;28;20048;-90
2022/06/22 14:07:06;;;;;;;0.00;0.00;;;;;;;;;;5037447;28;20091;-90
2022/06/22 14:09:55;;;;;;;0.00;0.00;;;;;;;;;;5043068;28;20032;-91
2022/06/22 14:15:47;;;;;;;0.00;0.00;;;;;;;;;;5065790;28;20476;-90
2022/06/22 14:18:31;;;;;;;0.00;0.00;;;;;;;;;;5072469;28;20088;-92
2022/06/22 14:21:13;;;;;;;0.00;0.00;;;;;;;;;;5042441;28;20044;-92
2022/06/22 14:23:40;;;;;;;0.00;0.00;;;;;;;;;;5055649;28;20117;-92
2022/06/22 14:26:25;;;;;;;0.00;0.00;;;;;;;;;;5066024;28;20047;-90
2022/06/22 14:29:03;;;;;;;0.00;0.00;;;;;;;;;;5053423;28;20033;-94
2022/06/22 14:31:48;;;;;;;0.00;0.00;;;;;;;;;;5068170;28;20067;-92
2022/06/22 14:34:38;;;;;;;0.00;0.00;;;;;;;;;;5050068;28;20039;-93
2022/06/22 14:37:12;;;;;;;0.00;0.00;;;;;;;;;;5068166;28;20033;-90
2022/06/22 14:39:45;;;;;;;0.10;0.10;;;;;;;;;;5039874;28;20045;-92
2022/06/22 14:42:23;;;;;;;0.00;0.00;;;;;;;;;;5052924;28;20094;-94
2022/06/22 14:45:12;;;;;;;0.00;0.00;;;;;;;;;;5054482;28;20087;-91
2022/06/22 14:47:43;;;;;;;0.08;0.08;;;;;;;;;;5051504;28;20071;-92
2022/06/22 14:50:10;;;;;;;0.10;0.10;;;;;;;;;;5047116;28;20078;-92
2022/06/22 14:52:49;;;;;;;0.03;0.03;;;;;;;;;;5046459;28;20041;-92
2022/06/22 14:55:39;;;;;;;0.00;0.00;;;;;;;;;;5054562;28;20032;-93
2022/06/22 14:58:25;;;;;;;0.08;0.08;;;;;;;;;;5052872;28;20032;-95
2022/06/22 15:01:12;;;;;;;0.10;0.10;;;;;;;;;;5036492;28;20041;-93
2022/06/22 15:03:39;;;;;;;0.00;0.00;;;;;;;;;;5053928;28;20037;-91
2022/06/22 15:06:27;;;;;;;0.00;0.00;;;;;;;;;;5045371;28;20047;-93
2022/06/22 15:08:56;;;;;;;0.00;0.00;;;;;;;;;;5034074;28;20045;-94
2022/06/22 15:14:55;;;;;;;0.03;0.03;;;;;;;;;;5080048;28;20079;-93
2022/06/22 15:17:24;;;;;;;0.00;0.00;;;;;;;;;;5048859;28;20036;-93
2022/06/22 15:20:26;;;;;;;0.00;0.00;;;;;;;;;;5050498;28;20047;-92
2022/06/22 15:23:11;;;;;;;0.00;0.00;;;;;;;;;;5059097;28;20124;-93
2022/06/22 15:25:46;;;;;;;0.00;0.00;;;;;;;;;;5053513;28;20108;-89
2022/06/22 15:28:13;;;;;;;0.00;0.00;;;;;;;;;;5046322;28;20052;-90
2022/06/22 15:30:42;;;;;;;0.00;0.00;;;;;;;;;;5047703;28;20051;-93
2022/06/22 15:33:09;;;;;;;0.00;0.00;;;;;;;;;;5045958;28;20040;-90
2022/06/22 15:35:35;;;;;;;0.10;0.10;;;;;;;;;;5041593;28;20082;-91
2022/06/22 15:38:07;;;;;;;0.00;0.00;;;;;;;;;;5043974;28;20032;-91
2022/06/22 15:40:33;;;;;;;0.00;0.00;;;;;;;;;;5047255;28;20036;-92
2022/06/22 15:43:12;;;;;;;0.00;0.00;;;;;;;;;;5042367;28;20064;-91
2022/06/22 15:45:38;;;;;;;0.00;0.00;;;;;;;;;;5043700;28;20039;-91
2022/06/22 15:48:06;;;;;;;0.00;0.00;;;;;;;;;;5047122;28;20063;-92
2022/06/22 15:50:40;;;;;;;0.00;0.00;;;;;;;;;;5059296;28;20045;-91
2022/06/22 15:53:12;;;;;;;0.00;0.00;;;;;;;;;;5044093;28;20071;-92
2022/06/22 15:55:44;;;;;;;0.00;0.00;;;;;;;;;;5044722;28;20081;-90
2022/06/22 15:58:17;;;;;;;0.10;0.10;;;;;;;;;;5047133;28;20105;-93
2022/06/22 16:00:46;;;;;;;0.00;0.00;;;;;;;;;;5054638;28;20037;-91
2022/06/22 16:03:12;;;;;;;0.00;0.00;;;;;;;;;;5044576;28;20032;-90
2022/06/22 16:05:44;;;;;;;0.10;0.10;;;;;;;;;;5044916;28;20402;-91